sensor_id;sensor_type;location;lat;lon;timestamp;temperature;humidity
13440;DHT22;6792;57.698;11.946;2023-11-21T00:01:13;9.70;50.90
13440;DHT22;6792;57.698;11.946;2023-11-21T00:03:42;9.70;50.90
13440;DHT22;6792;57.698;11.946;2023-11-21T00:06:11;9.70;50.90
13440;DHT22;6792;57.698;11.946;2023-11-21T00:08:40;9.70;51.00
13440;DHT22;6792;57.698;11.946;2023-11-21T00:11:09;9.70;50.40
13440;DHT22;6792;57.698;11.946;2023-11-21T00:13:39;9.70;51.00
13440;DHT22;6792;57.698;11.946;2023-11-21T00:16:08;9.70;51.00
13440;DHT22;6792;57.698;11.946;2023-11-21T00:18:38;9.70;51.00
13440;DHT22;6792;57.698;11.946;2023-11-21T00:21:07;9.80;51.10
13440;DHT22;6792;57.698;11.946;2023-11-21T00:23:36;9.80;51.10
13440;DHT22;6792;57.698;11.946;2023-11-21T00:26:06;9.80;51.10
13440;DHT22;6792;57.698;11.946;2023-11-21T00:28:35;9.80;50.50
13440;DHT22;6792;57.698;11.946;2023-11-21T00:31:05;9.80;51.10
13440;DHT22;6792;57.698;11.946;2023-11-21T00:33:34;9.80;51.10
13440;DHT22;6792;57.698;11.946;2023-11-21T00:36:04;9.80;51.10
13440;DHT22;6792;57.698;11.946;2023-11-21T00:38:35;9.80;51.10
13440;DHT22;6792;57.698;11.946;2023-11-21T00:41:06;9.80;51.30
13440;DHT22;6792;57.698;11.946;2023-11-21T00:43:35;9.80;51.20
13440;DHT22;6792;57.698;11.946;2023-11-21T00:46:06;9.80;51.20
13440;DHT22;6792;57.698;11.946;2023-11-21T00:48:35;9.80;51.30
13440;DHT22;6792;57.698;11.946;2023-11-21T00:51:05;9.80;50.70
13440;DHT22;6792;57.698;11.946;2023-11-21T00:53:35;9.80;51.30
13440;DHT22;6792;57.698;11.946;2023-11-21T00:56:05;9.80;51.30
13440;DHT22;6792;57.698;11.946;2023-11-21T00:58:34;9.80;51.30
13440;DHT22;6792;57.698;11.946;2023-11-21T01:01:03;9.80;51.30
13440;DHT22;6792;57.698;11.946;2023-11-21T01:03:33;9.80;51.30
13440;DHT22;6792;57.698;11.946;2023-11-21T01:06:02;9.80;51.40
13440;DHT22;6792;57.698;11.946;2023-11-21T01:08:32;9.80;51.40
13440;DHT22;6792;57.698;11.946;2023-11-21T01:11:01;9.90;51.40
13440;DHT22;6792;57.698;11.946;2023-11-21T01:13:31;9.90;51.50
13440;DHT22;6792;57.698;11.946;2023-11-21T01:16:00;9.90;51.50
13440;DHT22;6792;57.698;11.946;2023-11-21T01:18:29;9.90;50.90
13440;DHT22;6792;57.698;11.946;2023-11-21T01:20:58;9.90;51.50
13440;DHT22;6792;57.698;11.946;2023-11-21T01:23:28;9.90;51.50
13440;DHT22;6792;57.698;11.946;2023-11-21T01:25:57;9.90;51.50
13440;DHT22;6792;57.698;11.946;2023-11-21T01:28:26;9.90;51.50
13440;DHT22;6792;57.698;11.946;2023-11-21T01:30:56;9.90;51.10
13440;DHT22;6792;57.698;11.946;2023-11-21T01:33:25;10.00;51.60
13440;DHT22;6792;57.698;11.946;2023-11-21T01:35:54;9.90;51.60
13440;DHT22;6792;57.698;11.946;2023-11-21T01:38:23;9.90;51.60
13440;DHT22;6792;57.698;11.946;2023-11-21T01:40:52;9.90;51.60
13440;DHT22;6792;57.698;11.946;2023-11-21T01:43:22;9.90;51.70
13440;DHT22;6792;57.698;11.946;2023-11-21T01:45:51;10.00;51.60
13440;DHT22;6792;57.698;11.946;2023-11-21T01:48:20;9.90;51.00
13440;DHT22;6792;57.698;11.946;2023-11-21T01:50:49;10.00;51.70
13440;DHT22;6792;57.698;11.946;2023-11-21T01:53:19;9.90;51.60
13440;DHT22;6792;57.698;11.946;2023-11-21T01:55:48;9.90;51.60
13440;DHT22;6792;57.698;11.946;2023-11-21T01:58:17;9.90;51.60
13440;DHT22;6792;57.698;11.946;2023-11-21T02:00:47;9.90;51.70
13440;DHT22;6792;57.698;11.946;2023-11-21T02:03:19;9.90;51.70
13440;DHT22;6792;57.698;11.946;2023-11-21T02:05:48;9.90;51.70
13440;DHT22;6792;57.698;11.946;2023-11-21T02:08:18;10.00;52.30
13440;DHT22;6792;57.698;11.946;2023-11-21T02:10:47;9.90;51.70
13440;DHT22;6792;57.698;11.946;2023-11-21T02:13:16;9.90;51.80
13440;DHT22;6792;57.698;11.946;2023-11-21T02:15:45;9.90;51.70
13440;DHT22;6792;57.698;11.946;2023-11-21T02:18:15;9.90;51.80
13440;DHT22;6792;57.698;11.946;2023-11-21T02:20:45;9.90;51.80
13440;DHT22;6792;57.698;11.946;2023-11-21T02:23:14;9.90;51.90
13440;DHT22;6792;57.698;11.946;2023-11-21T02:25:44;9.90;51.20
13440;DHT22;6792;57.698;11.946;2023-11-21T02:28:13;9.90;51.80
13440;DHT22;6792;57.698;11.946;2023-11-21T02:30:43;10.00;52.10
13440;DHT22;6792;57.698;11.946;2023-11-21T02:33:13;9.90;51.90
13440;DHT22;6792;57.698;11.946;2023-11-21T02:35:42;10.00;52.00
13440;DHT22;6792;57.698;11.946;2023-11-21T02:38:12;10.00;51.40
13440;DHT22;6792;57.698;11.946;2023-11-21T02:40:42;10.00;51.40
13440;DHT22;6792;57.698;11.946;2023-11-21T02:43:11;10.00;51.90
13440;DHT22;6792;57.698;11.946;2023-11-21T02:45:40;10.10;51.90
13440;DHT22;6792;57.698;11.946;2023-11-21T02:48:10;10.10;51.90
13440;DHT22;6792;57.698;11.946;2023-11-21T02:50:39;10.10;51.80
13440;DHT22;6792;57.698;11.946;2023-11-21T02:53:09;10.10;51.90
13440;DHT22;6792;57.698;11.946;2023-11-21T02:55:38;10.10;51.80
13440;DHT22;6792;57.698;11.946;2023-11-21T02:58:07;10.20;51.90
13440;DHT22;6792;57.698;11.946;2023-11-21T03:00:36;10.20;51.90
13440;DHT22;6792;57.698;11.946;2023-11-21T03:03:07;10.20;51.80
13440;DHT22;6792;57.698;11.946;2023-11-21T03:05:36;10.20;51.90
13440;DHT22;6792;57.698;11.946;2023-11-21T03:08:06;10.20;51.90
13440;DHT22;6792;57.698;11.946;2023-11-21T03:10:35;10.10;51.80
13440;DHT22;6792;57.698;11.946;2023-11-21T03:13:04;10.10;51.90
13440;DHT22;6792;57.698;11.946;2023-11-21T03:15:33;10.10;51.90
13440;DHT22;6792;57.698;11.946;2023-11-21T03:18:03;10.10;51.90
13440;DHT22;6792;57.698;11.946;2023-11-21T03:20:32;10.20;52.00
13440;DHT22;6792;57.698;11.946;2023-11-21T03:23:02;10.20;52.00
13440;DHT22;6792;57.698;11.946;2023-11-21T03:25:32;10.20;51.90
13440;DHT22;6792;57.698;11.946;2023-11-21T03:28:01;10.20;51.40
13440;DHT22;6792;57.698;11.946;2023-11-21T03:30:31;10.20;51.90
13440;DHT22;6792;57.698;11.946;2023-11-21T03:33:00;10.20;51.90
13440;DHT22;6792;57.698;11.946;2023-11-21T03:35:29;10.20;52.00
13440;DHT22;6792;57.698;11.946;2023-11-21T03:37:58;10.10;51.90
13440;DHT22;6792;57.698;11.946;2023-11-21T03:40:27;10.20;52.00
13440;DHT22;6792;57.698;11.946;2023-11-21T03:42:56;10.20;52.10
13440;DHT22;6792;57.698;11.946;2023-11-21T03:45:25;10.20;52.10
13440;DHT22;6792;57.698;11.946;2023-11-21T03:47:54;10.20;52.00
13440;DHT22;6792;57.698;11.946;2023-11-21T03:50:24;10.20;52.10
13440;DHT22;6792;57.698;11.946;2023-11-21T03:52:53;10.30;52.10
13440;DHT22;6792;57.698;11.946;2023-11-21T03:55:22;10.30;52.10
13440;DHT22;6792;57.698;11.946;2023-11-21T03:57:52;10.30;52.00
13440;DHT22;6792;57.698;11.946;2023-11-21T04:00:22;10.40;52.10
13440;DHT22;6792;57.698;11.946;2023-11-21T04:02:51;10.40;52.00
13440;DHT22;6792;57.698;11.946;2023-11-21T04:05:21;10.40;52.00
13440;DHT22;6792;57.698;11.946;2023-11-21T04:07:50;10.40;52.00
13440;DHT22;6792;57.698;11.946;2023-11-21T04:10:20;10.40;52.00
13440;DHT22;6792;57.698;11.946;2023-11-21T04:12:49;10.40;52.00
13440;DHT22;6792;57.698;11.946;2023-11-21T04:15:18;10.40;51.90
13440;DHT22;6792;57.698;11.946;2023-11-21T04:17:47;10.40;52.00
13440;DHT22;6792;57.698;11.946;2023-11-21T04:20:16;10.40;51.90
13440;DHT22;6792;57.698;11.946;2023-11-21T04:22:46;10.40;51.90
13440;DHT22;6792;57.698;11.946;2023-11-21T04:25:15;10.40;52.50
13440;DHT22;6792;57.698;11.946;2023-11-21T04:27:45;10.40;51.80
13440;DHT22;6792;57.698;11.946;2023-11-21T04:30:15;10.30;51.90
13440;DHT22;6792;57.698;11.946;2023-11-21T04:32:44;10.30;51.40
13440;DHT22;6792;57.698;11.946;2023-11-21T04:35:13;10.30;52.00
13440;DHT22;6792;57.698;11.946;2023-11-21T04:37:42;10.30;52.00
13440;DHT22;6792;57.698;11.946;2023-11-21T04:40:13;10.30;52.00
13440;DHT22;6792;57.698;11.946;2023-11-21T04:42:42;10.30;52.00
13440;DHT22;6792;57.698;11.946;2023-11-21T04:45:11;10.30;52.00
13440;DHT22;6792;57.698;11.946;2023-11-21T04:47:40;10.30;51.90
13440;DHT22;6792;57.698;11.946;2023-11-21T04:50:10;10.30;52.00
13440;DHT22;6792;57.698;11.946;2023-11-21T04:52:39;10.30;52.00
13440;DHT22;6792;57.698;11.946;2023-11-21T04:55:09;10.30;52.00
13440;DHT22;6792;57.698;11.946;2023-11-21T04:57:38;10.30;52.00
13440;DHT22;6792;57.698;11.946;2023-11-21T05:00:10;10.40;51.40
13440;DHT22;6792;57.698;11.946;2023-11-21T05:02:40;11.50;51.90
13440;DHT22;6792;57.698;11.946;2023-11-21T05:05:11;10.40;51.30
13440;DHT22;6792;57.698;11.946;2023-11-21T05:07:40;10.40;51.90
13440;DHT22;6792;57.698;11.946;2023-11-21T05:10:11;10.40;51.80
13440;DHT22;6792;57.698;11.946;2023-11-21T05:12:42;10.30;51.70
13440;DHT22;6792;57.698;11.946;2023-11-21T05:17:53;10.30;51.30
13440;DHT22;6792;57.698;11.946;2023-11-21T05:20:22;10.30;51.90
13440;DHT22;6792;57.698;11.946;2023-11-21T05:22:52;10.30;51.80
13440;DHT22;6792;57.698;11.946;2023-11-21T05:25:21;10.30;51.90
13440;DHT22;6792;57.698;11.946;2023-11-21T05:27:50;10.30;51.90
13440;DHT22;6792;57.698;11.946;2023-11-21T05:30:19;10.30;51.80
13440;DHT22;6792;57.698;11.946;2023-11-21T05:32:48;10.30;51.80
13440;DHT22;6792;57.698;11.946;2023-11-21T05:35:17;10.30;51.80
13440;DHT22;6792;57.698;11.946;2023-11-21T05:37:46;10.40;51.80
13440;DHT22;6792;57.698;11.946;2023-11-21T05:40:16;10.30;51.70
13440;DHT22;6792;57.698;11.946;2023-11-21T05:42:45;10.30;51.60
13440;DHT22;6792;57.698;11.946;2023-11-21T05:45:14;10.30;51.60
13440;DHT22;6792;57.698;11.946;2023-11-21T05:47:45;10.30;51.60
13440;DHT22;6792;57.698;11.946;2023-11-21T05:50:15;10.30;51.10
13440;DHT22;6792;57.698;11.946;2023-11-21T05:52:46;10.30;51.60
13440;DHT22;6792;57.698;11.946;2023-11-21T05:55:16;10.30;51.70
13440;DHT22;6792;57.698;11.946;2023-11-21T05:57:45;10.20;51.60
13440;DHT22;6792;57.698;11.946;2023-11-21T06:00:16;10.20;51.60
13440;DHT22;6792;57.698;11.946;2023-11-21T06:02:47;10.10;51.60
13440;DHT22;6792;57.698;11.946;2023-11-21T06:05:19;10.10;51.60
13440;DHT22;6792;57.698;11.946;2023-11-21T06:07:51;10.00;51.60
13440;DHT22;6792;57.698;11.946;2023-11-21T06:10:21;10.00;51.70
13440;DHT22;6792;57.698;11.946;2023-11-21T06:12:52;10.00;51.70
13440;DHT22;6792;57.698;11.946;2023-11-21T06:15:21;10.00;51.70
13440;DHT22;6792;57.698;11.946;2023-11-21T06:17:51;10.00;51.70
13440;DHT22;6792;57.698;11.946;2023-11-21T06:20:21;10.00;51.70
13440;DHT22;6792;57.698;11.946;2023-11-21T06:22:51;10.00;51.60
13440;DHT22;6792;57.698;11.946;2023-11-21T06:25:21;10.00;51.70
13440;DHT22;6792;57.698;11.946;2023-11-21T06:27:51;10.00;51.70
13440;DHT22;6792;57.698;11.946;2023-11-21T06:30:21;10.00;51.80
13440;DHT22;6792;57.698;11.946;2023-11-21T06:32:51;10.00;51.70
13440;DHT22;6792;57.698;11.946;2023-11-21T06:35:20;10.00;51.20
13440;DHT22;6792;57.698;11.946;2023-11-21T06:37:49;10.00;51.70
13440;DHT22;6792;57.698;11.946;2023-11-21T06:40:20;10.00;51.70
13440;DHT22;6792;57.698;11.946;2023-11-21T06:42:49;10.00;51.70
13440;DHT22;6792;57.698;11.946;2023-11-21T06:45:19;10.10;51.70
13440;DHT22;6792;57.698;11.946;2023-11-21T06:47:49;10.00;51.60
13440;DHT22;6792;57.698;11.946;2023-11-21T06:50:19;10.00;51.50
13440;DHT22;6792;57.698;11.946;2023-11-21T06:52:48;10.00;51.60
13440;DHT22;6792;57.698;11.946;2023-11-21T06:55:17;10.00;51.60
13440;DHT22;6792;57.698;11.946;2023-11-21T06:57:47;9.90;51.00
13440;DHT22;6792;57.698;11.946;2023-11-21T07:00:18;9.90;51.60
13440;DHT22;6792;57.698;11.946;2023-11-21T07:05:26;10.00;51.10
13440;DHT22;6792;57.698;11.946;2023-11-21T07:07:55;10.00;51.60
13440;DHT22;6792;57.698;11.946;2023-11-21T07:10:24;9.90;51.60
13440;DHT22;6792;57.698;11.946;2023-11-21T07:12:54;9.90;51.60
13440;DHT22;6792;57.698;11.946;2023-11-21T07:15:25;9.90;51.60
13440;DHT22;6792;57.698;11.946;2023-11-21T07:17:54;9.90;51.70
13440;DHT22;6792;57.698;11.946;2023-11-21T07:20:23;9.90;51.70
13440;DHT22;6792;57.698;11.946;2023-11-21T07:22:52;9.90;51.70
13440;DHT22;6792;57.698;11.946;2023-11-21T07:25:22;9.90;51.70
13440;DHT22;6792;57.698;11.946;2023-11-21T07:27:51;9.90;51.70
13440;DHT22;6792;57.698;11.946;2023-11-21T07:30:20;9.90;51.70
13440;DHT22;6792;57.698;11.946;2023-11-21T07:32:50;10.00;51.70
13440;DHT22;6792;57.698;11.946;2023-11-21T07:35:19;10.00;51.70
13440;DHT22;6792;57.698;11.946;2023-11-21T07:37:49;10.00;51.60
13440;DHT22;6792;57.698;11.946;2023-11-21T07:40:19;9.90;51.10
13440;DHT22;6792;57.698;11.946;2023-11-21T07:42:48;10.00;51.70
13440;DHT22;6792;57.698;11.946;2023-11-21T07:45:17;9.90;51.60
13440;DHT22;6792;57.698;11.946;2023-11-21T07:47:47;9.90;51.70
13440;DHT22;6792;57.698;11.946;2023-11-21T07:50:16;9.90;51.70
13440;DHT22;6792;57.698;11.946;2023-11-21T07:52:45;10.00;51.80
13440;DHT22;6792;57.698;11.946;2023-11-21T07:55:14;10.00;51.70
13440;DHT22;6792;57.698;11.946;2023-11-21T07:57:44;10.00;51.70
13440;DHT22;6792;57.698;11.946;2023-11-21T08:00:14;10.10;51.70
13440;DHT22;6792;57.698;11.946;2023-11-21T08:02:43;10.10;51.70
13440;DHT22;6792;57.698;11.946;2023-11-21T08:05:13;10.10;52.30
13440;DHT22;6792;57.698;11.946;2023-11-21T08:07:43;10.10;51.70
13440;DHT22;6792;57.698;11.946;2023-11-21T08:10:12;10.10;51.70
13440;DHT22;6792;57.698;11.946;2023-11-21T08:12:41;10.10;51.70
13440;DHT22;6792;57.698;11.946;2023-11-21T08:15:11;10.20;51.70
13440;DHT22;6792;57.698;11.946;2023-11-21T08:17:40;10.20;51.70
13440;DHT22;6792;57.698;11.946;2023-11-21T08:20:12;10.20;51.70
13440;DHT22;6792;57.698;11.946;2023-11-21T08:22:43;10.20;51.60
13440;DHT22;6792;57.698;11.946;2023-11-21T08:25:12;9.40;50.60
13440;DHT22;6792;57.698;11.946;2023-11-21T08:27:41;10.30;51.60
13440;DHT22;6792;57.698;11.946;2023-11-21T08:30:13;10.30;51.50
13440;DHT22;6792;57.698;11.946;2023-11-21T08:32:44;10.30;51.60
13440;DHT22;6792;57.698;11.946;2023-11-21T08:35:13;10.30;51.50
13440;DHT22;6792;57.698;11.946;2023-11-21T08:37:43;10.30;51.50
13440;DHT22;6792;57.698;11.946;2023-11-21T08:40:13;10.30;51.50
13440;DHT22;6792;57.698;11.946;2023-11-21T08:42:44;10.40;51.60
13440;DHT22;6792;57.698;11.946;2023-11-21T08:45:14;10.30;51.50
13440;DHT22;6792;57.698;11.946;2023-11-21T08:47:44;10.30;51.50
13440;DHT22;6792;57.698;11.946;2023-11-21T08:50:14;10.30;51.50
13440;DHT22;6792;57.698;11.946;2023-11-21T08:52:44;10.30;51.50
13440;DHT22;6792;57.698;11.946;2023-11-21T08:55:14;10.30;51.50
13440;DHT22;6792;57.698;11.946;2023-11-21T08:57:45;10.30;51.50
13440;DHT22;6792;57.698;11.946;2023-11-21T09:00:15;10.30;51.60
13440;DHT22;6792;57.698;11.946;2023-11-21T09:02:45;10.30;52.10
13440;DHT22;6792;57.698;11.946;2023-11-21T09:05:15;10.30;51.50
13440;DHT22;6792;57.698;11.946;2023-11-21T09:07:44;10.30;51.50
13440;DHT22;6792;57.698;11.946;2023-11-21T09:10:16;10.30;51.50
13440;DHT22;6792;57.698;11.946;2023-11-21T09:15:25;10.30;51.00
13440;DHT22;6792;57.698;11.946;2023-11-21T09:17:55;10.40;51.60
13440;DHT22;6792;57.698;11.946;2023-11-21T09:20:24;10.40;52.10
13440;DHT22;6792;57.698;11.946;2023-11-21T09:22:53;10.40;51.40
13440;DHT22;6792;57.698;11.946;2023-11-21T09:25:23;10.40;51.50
13440;DHT22;6792;57.698;11.946;2023-11-21T09:27:52;10.40;51.50
13440;DHT22;6792;57.698;11.946;2023-11-21T09:30:21;10.40;51.50
13440;DHT22;6792;57.698;11.946;2023-11-21T09:32:52;10.40;51.50
13440;DHT22;6792;57.698;11.946;2023-11-21T09:35:21;10.50;51.50
13440;DHT22;6792;57.698;11.946;2023-11-21T09:37:51;10.50;50.90
13440;DHT22;6792;57.698;11.946;2023-11-21T09:40:22;10.50;51.40
13440;DHT22;6792;57.698;11.946;2023-11-21T09:42:54;10.50;51.40
13440;DHT22;6792;57.698;11.946;2023-11-21T09:45:27;10.50;51.40
13440;DHT22;6792;57.698;11.946;2023-11-21T09:47:57;10.50;51.40
13440;DHT22;6792;57.698;11.946;2023-11-21T09:50:27;10.50;51.50
13440;DHT22;6792;57.698;11.946;2023-11-21T09:53:01;10.50;51.40
13440;DHT22;6792;57.698;11.946;2023-11-21T09:55:29;10.50;51.30
13440;DHT22;6792;57.698;11.946;2023-11-21T09:58:00;10.50;51.80
13440;DHT22;6792;57.698;11.946;2023-11-21T10:00:30;10.40;51.40
13440;DHT22;6792;57.698;11.946;2023-11-21T10:03:02;10.40;50.90
13440;DHT22;6792;57.698;11.946;2023-11-21T10:05:31;10.40;51.40
13440;DHT22;6792;57.698;11.946;2023-11-21T10:08:02;10.50;51.40
13440;DHT22;6792;57.698;11.946;2023-11-21T10:10:33;10.50;51.50
13440;DHT22;6792;57.698;11.946;2023-11-21T10:13:04;10.50;51.40
13440;DHT22;6792;57.698;11.946;2023-11-21T10:15:35;10.50;51.40
13440;DHT22;6792;57.698;11.946;2023-11-21T10:18:07;10.50;51.40
13440;DHT22;6792;57.698;11.946;2023-11-21T10:20:37;10.50;50.80
13440;DHT22;6792;57.698;11.946;2023-11-21T10:23:07;10.50;51.30
13440;DHT22;6792;57.698;11.946;2023-11-21T10:25:38;10.50;51.30
13440;DHT22;6792;57.698;11.946;2023-11-21T10:28:07;10.50;51.30
13440;DHT22;6792;57.698;11.946;2023-11-21T10:30:39;10.50;51.30
13440;DHT22;6792;57.698;11.946;2023-11-21T10:33:08;10.50;51.30
13440;DHT22;6792;57.698;11.946;2023-11-21T10:35:44;10.50;51.30
13440;DHT22;6792;57.698;11.946;2023-11-21T10:38:14;10.50;50.70
13440;DHT22;6792;57.698;11.946;2023-11-21T10:40:44;10.40;51.20
13440;DHT22;6792;57.698;11.946;2023-11-21T10:43:14;10.40;50.70
13440;DHT22;6792;57.698;11.946;2023-11-21T10:45:43;10.50;51.30
13440;DHT22;6792;57.698;11.946;2023-11-21T10:48:14;10.40;51.20
13440;DHT22;6792;57.698;11.946;2023-11-21T10:50:46;10.50;51.20
13440;DHT22;6792;57.698;11.946;2023-11-21T10:53:15;10.40;51.20
13440;DHT22;6792;57.698;11.946;2023-11-21T10:55:44;10.40;51.20
13440;DHT22;6792;57.698;11.946;2023-11-21T10:58:15;10.50;51.20
13440;DHT22;6792;57.698;11.946;2023-11-21T11:00:45;10.50;51.20
13440;DHT22;6792;57.698;11.946;2023-11-21T11:03:15;10.50;51.20
13440;DHT22;6792;57.698;11.946;2023-11-21T11:05:44;10.50;51.10
13440;DHT22;6792;57.698;11.946;2023-11-21T11:08:17;10.60;51.20
13440;DHT22;6792;57.698;11.946;2023-11-21T11:10:47;10.60;50.50
13440;DHT22;6792;57.698;11.946;2023-11-21T11:13:18;10.50;50.40
13440;DHT22;6792;57.698;11.946;2023-11-21T11:15:49;10.50;50.90
13440;DHT22;6792;57.698;11.946;2023-11-21T11:18:19;10.60;51.00
13440;DHT22;6792;57.698;11.946;2023-11-21T11:20:50;10.60;51.00
13440;DHT22;6792;57.698;11.946;2023-11-21T11:23:30;10.60;51.00
13440;DHT22;6792;57.698;11.946;2023-11-21T11:26:09;10.60;50.90
13440;DHT22;6792;57.698;11.946;2023-11-21T11:28:42;10.70;51.60
13440;DHT22;6792;57.698;11.946;2023-11-21T11:33:57;10.70;50.30
13440;DHT22;6792;57.698;11.946;2023-11-21T11:36:47;10.80;51.00
13440;DHT22;6792;57.698;11.946;2023-11-21T11:39:28;10.80;50.30
13440;DHT22;6792;57.698;11.946;2023-11-21T11:41:59;10.80;50.80
13440;DHT22;6792;57.698;11.946;2023-11-21T11:47:42;10.80;50.10
13440;DHT22;6792;57.698;11.946;2023-11-21T11:50:13;10.70;50.70
13440;DHT22;6792;57.698;11.946;2023-11-21T11:52:45;10.80;50.80
13440;DHT22;6792;57.698;11.946;2023-11-21T11:55:15;10.80;50.70
13440;DHT22;6792;57.698;11.946;2023-11-21T11:57:48;10.80;50.70
13440;DHT22;6792;57.698;11.946;2023-11-21T12:00:19;10.80;50.60
13440;DHT22;6792;57.698;11.946;2023-11-21T12:02:50;10.90;50.60
13440;DHT22;6792;57.698;11.946;2023-11-21T12:05:21;11.30;50.20
13440;DHT22;6792;57.698;11.946;2023-11-21T12:07:52;10.90;50.40
13440;DHT22;6792;57.698;11.946;2023-11-21T12:10:23;10.90;50.30
13440;DHT22;6792;57.698;11.946;2023-11-21T12:12:53;10.90;50.30
13440;DHT22;6792;57.698;11.946;2023-11-21T12:15:23;11.00;50.30
13440;DHT22;6792;57.698;11.946;2023-11-21T12:17:53;11.00;50.30
13440;DHT22;6792;57.698;11.946;2023-11-21T12:20:23;11.10;50.20
13440;DHT22;6792;57.698;11.946;2023-11-21T12:22:53;11.10;50.10
13440;DHT22;6792;57.698;11.946;2023-11-21T12:25:24;11.10;50.00
13440;DHT22;6792;57.698;11.946;2023-11-21T12:27:56;11.00;50.00
13440;DHT22;6792;57.698;11.946;2023-11-21T12:30:27;11.10;50.00
13440;DHT22;6792;57.698;11.946;2023-11-21T12:32:59;11.10;49.90
13440;DHT22;6792;57.698;11.946;2023-11-21T12:35:30;11.10;49.90
13440;DHT22;6792;57.698;11.946;2023-11-21T12:38:02;11.10;49.80
13440;DHT22;6792;57.698;11.946;2023-11-21T12:40:32;11.10;49.80
13440;DHT22;6792;57.698;11.946;2023-11-21T12:43:01;11.10;49.80
13440;DHT22;6792;57.698;11.946;2023-11-21T12:45:32;11.10;49.70
13440;DHT22;6792;57.698;11.946;2023-11-21T12:48:02;11.10;49.80
13440;DHT22;6792;57.698;11.946;2023-11-21T12:50:34;11.10;49.80
13440;DHT22;6792;57.698;11.946;2023-11-21T12:53:05;11.10;49.70
13440;DHT22;6792;57.698;11.946;2023-11-21T12:55:36;11.10;49.70
13440;DHT22;6792;57.698;11.946;2023-11-21T12:58:06;11.00;49.60
13440;DHT22;6792;57.698;11.946;2023-11-21T13:00:39;11.00;49.60
13440;DHT22;6792;57.698;11.946;2023-11-21T13:03:11;11.00;49.50
13440;DHT22;6792;57.698;11.946;2023-11-21T13:05:43;10.90;49.50
13440;DHT22;6792;57.698;11.946;2023-11-21T13:08:13;10.90;49.60
13440;DHT22;6792;57.698;11.946;2023-11-21T13:10:45;10.90;49.60
13440;DHT22;6792;57.698;11.946;2023-11-21T13:13:15;10.90;49.60
13440;DHT22;6792;57.698;11.946;2023-11-21T13:15:49;10.80;49.50
13440;DHT22;6792;57.698;11.946;2023-11-21T13:18:19;10.80;49.50
13440;DHT22;6792;57.698;11.946;2023-11-21T13:20:49;10.70;49.50
13440;DHT22;6792;57.698;11.946;2023-11-21T13:23:18;10.70;49.50
13440;DHT22;6792;57.698;11.946;2023-11-21T13:25:47;10.60;49.50
13440;DHT22;6792;57.698;11.946;2023-11-21T13:28:17;10.60;49.60
13440;DHT22;6792;57.698;11.946;2023-11-21T13:30:49;10.60;49.60
13440;DHT22;6792;57.698;11.946;2023-11-21T13:33:19;10.50;49.60
13440;DHT22;6792;57.698;11.946;2023-11-21T13:35:51;10.50;49.60
13440;DHT22;6792;57.698;11.946;2023-11-21T13:38:20;10.50;49.60
13440;DHT22;6792;57.698;11.946;2023-11-21T13:40:52;10.50;49.60
13440;DHT22;6792;57.698;11.946;2023-11-21T13:43:23;10.60;49.70
13440;DHT22;6792;57.698;11.946;2023-11-21T13:45:54;10.60;49.20
13440;DHT22;6792;57.698;11.946;2023-11-21T13:48:27;10.60;49.60
13440;DHT22;6792;57.698;11.946;2023-11-21T13:50:58;10.60;49.00
13440;DHT22;6792;57.698;11.946;2023-11-21T13:53:29;10.60;49.60
13440;DHT22;6792;57.698;11.946;2023-11-21T13:55:58;10.50;49.50
13440;DHT22;6792;57.698;11.946;2023-11-21T13:58:27;10.50;49.50
13440;DHT22;6792;57.698;11.946;2023-11-21T14:00:58;10.50;50.10
13440;DHT22;6792;57.698;11.946;2023-11-21T14:03:27;10.50;49.50
13440;DHT22;6792;57.698;11.946;2023-11-21T14:06:02;10.50;49.50
13440;DHT22;6792;57.698;11.946;2023-11-21T14:08:33;10.50;49.60
13440;DHT22;6792;57.698;11.946;2023-11-21T14:11:02;10.40;49.60
13440;DHT22;6792;57.698;11.946;2023-11-21T14:13:33;10.50;49.60
13440;DHT22;6792;57.698;11.946;2023-11-21T14:16:02;10.50;49.60
13440;DHT22;6792;57.698;11.946;2023-11-21T14:18:33;10.50;49.60
13440;DHT22;6792;57.698;11.946;2023-11-21T14:21:05;10.50;49.60
13440;DHT22;6792;57.698;11.946;2023-11-21T14:23:34;10.50;49.60
13440;DHT22;6792;57.698;11.946;2023-11-21T14:26:04;10.50;49.70
13440;DHT22;6792;57.698;11.946;2023-11-21T14:28:34;10.50;50.20
13440;DHT22;6792;57.698;11.946;2023-11-21T14:31:04;10.50;49.60
13440;DHT22;6792;57.698;11.946;2023-11-21T14:33:33;10.40;49.10
13440;DHT22;6792;57.698;11.946;2023-11-21T14:36:02;10.40;49.50
13440;DHT22;6792;57.698;11.946;2023-11-21T14:38:31;10.40;49.60
13440;DHT22;6792;57.698;11.946;2023-11-21T14:41:00;10.40;49.60
13440;DHT22;6792;57.698;11.946;2023-11-21T14:43:30;10.40;49.00
13440;DHT22;6792;57.698;11.946;2023-11-21T14:46:00;10.40;49.60
13440;DHT22;6792;57.698;11.946;2023-11-21T14:48:31;10.50;50.20
13440;DHT22;6792;57.698;11.946;2023-11-21T14:51:04;10.40;49.10
13440;DHT22;6792;57.698;11.946;2023-11-21T14:53:55;10.50;49.10
13440;DHT22;6792;57.698;11.946;2023-11-21T14:56:27;10.40;49.70
13440;DHT22;6792;57.698;11.946;2023-11-21T14:58:58;10.50;49.70
13440;DHT22;6792;57.698;11.946;2023-11-21T15:01:31;10.50;49.20
13440;DHT22;6792;57.698;11.946;2023-11-21T15:04:06;10.50;49.10
13440;DHT22;6792;57.698;11.946;2023-11-21T15:06:37;10.50;49.60
13440;DHT22;6792;57.698;11.946;2023-11-21T15:09:08;10.50;49.00
13440;DHT22;6792;57.698;11.946;2023-11-21T15:11:56;10.50;49.60
13440;DHT22;6792;57.698;11.946;2023-11-21T15:14:26;10.50;49.60
13440;DHT22;6792;57.698;11.946;2023-11-21T15:16:57;10.60;49.60
13440;DHT22;6792;57.698;11.946;2023-11-21T15:19:27;10.60;49.60
13440;DHT22;6792;57.698;11.946;2023-11-21T15:21:58;10.50;49.50
13440;DHT22;6792;57.698;11.946;2023-11-21T15:24:27;10.50;49.50
13440;DHT22;6792;57.698;11.946;2023-11-21T15:26:56;10.50;49.50
13440;DHT22;6792;57.698;11.946;2023-11-21T15:29:25;10.50;49.60
13440;DHT22;6792;57.698;11.946;2023-11-21T15:31:55;10.50;49.50
13440;DHT22;6792;57.698;11.946;2023-11-21T15:34:24;10.50;49.50
13440;DHT22;6792;57.698;11.946;2023-11-21T15:36:56;10.40;49.50
13440;DHT22;6792;57.698;11.946;2023-11-21T15:39:25;10.40;49.50
13440;DHT22;6792;57.698;11.946;2023-11-21T15:41:57;10.50;49.50
13440;DHT22;6792;57.698;11.946;2023-11-21T15:44:27;10.50;49.50
13440;DHT22;6792;57.698;11.946;2023-11-21T15:46:57;10.50;49.50
13440;DHT22;6792;57.698;11.946;2023-11-21T15:49:27;10.50;50.00
13440;DHT22;6792;57.698;11.946;2023-11-21T15:51:57;10.50;49.30
13440;DHT22;6792;57.698;11.946;2023-11-21T15:54:28;10.50;49.30
13440;DHT22;6792;57.698;11.946;2023-11-21T15:56:58;10.50;49.40
13440;DHT22;6792;57.698;11.946;2023-11-21T15:59:29;10.50;49.30
13440;DHT22;6792;57.698;11.946;2023-11-21T16:01:59;10.50;49.30
13440;DHT22;6792;57.698;11.946;2023-11-21T16:04:28;10.50;49.30
13440;DHT22;6792;57.698;11.946;2023-11-21T16:06:57;10.50;49.20